Time;durP1;ratioP1;P1;durP2;ratioP2;P2;SDS_P1;SDS_P2;PMS_P1;PMS_P2;Temp;Humidity;BMP_temperature;BMP_pressure;BME280_temperature;BME280_humidity;BME280_pressure;Samples;Min_cycle;Max_cycle;Signal;HPM_P1;HPM_P2
2022/10/02 00:06:46;;;;;;;3.70;1.60;;;;;;;11.74;75.17;99651.69;31119606;28;97418;-64
2022/10/02 00:22:40;;;;;;;3.17;1.30;;;;;;;11.70;74.95;99677.94;31117788;28;96908;-68
2022/10/02 00:37:45;;;;;;;5.43;1.50;;;;;;;11.71;75.26;99690.25;31060629;28;96883;-62
2022/10/02 00:53:04;;;;;;;3.37;1.33;;;;;;;11.76;74.89;99697.69;31114276;28;97157;-62
2022/10/02 01:08:06;;;;;;;2.63;1.10;;;;;;;11.72;74.84;99702.56;31113709;28;96697;-64
2022/10/02 01:23:18;;;;;;;4.30;1.20;;;;;;;11.59;74.62;99718.44;31111600;28;96659;-68
2022/10/02 01:38:22;;;;;;;4.93;1.13;;;;;;;11.47;75.42;99737.59;31110152;28;96677;-62
2022/10/02 01:53:31;;;;;;;2.87;1.13;;;;;;;11.38;74.31;99762.72;31108796;28;96812;-62
2022/10/02 02:08:44;;;;;;;3.63;1.20;;;;;;;11.22;74.78;99766.44;31107894;28;96649;-63
2022/10/02 02:23:46;;;;;;;3.07;1.20;;;;;;;11.26;74.99;99785.53;31105947;28;96661;-62
2022/10/02 02:38:51;;;;;;;7.43;1.10;;;;;;;11.30;75.62;99810.81;31104749;28;97407;-65
2022/10/02 02:54:03;;;;;;;3.33;0.97;;;;;;;11.27;75.77;99825.34;31103649;28;96859;-62
2022/10/02 03:09:07;;;;;;;7.27;1.50;;;;;;;10.94;75.04;99835.53;31100894;28;96986;-62
2022/10/02 03:24:20;;;;;;;;;;;;;;;10.46;75.27;99851.75;31100220;28;96890;-62
2022/10/02 03:39:20;;;;;;;4.83;1.33;;;;;;;10.53;76.24;99866.00;31100917;28;96704;-69
2022/10/02 03:54:21;;;;;;;3.20;1.60;;;;;;;10.39;75.98;99864.94;31098939;28;96740;-69
2022/10/02 04:09:35;;;;;;;4.33;1.80;;;;;;;10.47;76.41;99885.34;31097699;28;97746;-69
2022/10/02 04:24:43;;;;;;;7.47;1.53;;;;;;;10.59;76.96;99889.28;31110105;28;96706;-72
2022/10/02 04:40:04;;;;;;;7.00;1.80;;;;;;;10.25;76.77;99900.28;31116278;28;96817;-72
2022/10/02 04:55:35;;;;;;;6.47;1.43;;;;;;;10.39;77.56;99920.88;31113971;28;96725;-71
2022/10/02 05:10:54;;;;;;;7.97;2.20;;;;;;;10.42;77.26;99922.34;31111901;28;96636;-71
2022/10/02 05:26:06;;;;;;;3.83;1.43;;;;;;;10.64;77.10;99928.69;31107208;28;96766;-72
2022/10/02 05:41:18;;;;;;;12.20;1.63;;;;;;;10.87;76.91;99933.19;31109165;28;97086;-71
2022/10/02 05:56:34;;;;;;;5.37;1.50;;;;;;;11.56;76.58;99934.91;31107168;28;96735;-65
2022/10/02 06:11:41;;;;;;;5.53;1.37;;;;;;;12.05;75.12;99945.06;31105401;28;96735;-70
2022/10/02 06:26:53;;;;;;;6.63;1.70;;;;;;;12.38;74.07;99954.50;31104138;28;96888;-69
2022/10/02 06:42:21;;;;;;;6.27;1.10;;;;;;;12.61;73.57;99978.38;31100466;28;97550;-70
2022/10/02 06:57:21;;;;;;;6.00;1.93;;;;;;;13.35;72.08;99986.13;31102129;28;96620;-68
2022/10/02 07:12:44;;;;;;;7.57;1.45;;;;;;;14.56;70.82;99979.56;31100549;28;97137;-65
2022/10/02 07:28:15;;;;;;;6.10;2.37;;;;;;;15.52;68.22;99985.69;31099379;28;96725;-66
2022/10/02 07:44:08;;;;;;;5.77;1.60;;;;;;;16.63;64.80;99983.09;31096866;28;97204;-66
2022/10/02 07:59:14;;;;;;;10.83;1.87;;;;;;;17.32;60.78;99998.63;31102031;28;96625;-62
2022/10/02 08:14:35;;;;;;;10.20;1.90;;;;;;;15.59;61.08;99990.25;31116246;28;96716;-64
2022/10/02 08:29:41;;;;;;;6.70;1.40;;;;;;;16.61;60.75;99978.97;31114864;28;97210;-65
2022/10/02 08:45:22;;;;;;;4.47;1.17;;;;;;;17.81;58.23;99964.63;31114010;28;97123;-63
2022/10/02 09:00:57;;;;;;;5.43;1.37;;;;;;;18.53;54.09;99971.25;31111547;28;96730;-66
2022/10/02 09:16:08;;;;;;;5.30;0.93;;;;;;;25.37;46.80;99959.78;31100771;28;96720;-70
2022/10/02 09:31:46;;;;;;;6.30;1.17;;;;;;;35.91;25.51;99945.34;31107921;28;96899;-66
2022/10/02 09:47:05;;;;;;;5.80;1.13;;;;;;;29.17;28.68;99935.63;31105808;28;97105;-62
2022/10/02 10:02:31;;;;;;;4.50;1.33;;;;;;;26.76;31.54;99939.31;31106572;28;96715;-65
2022/10/02 10:17:58;;;;;;;5.43;1.10;;;;;;;32.55;24.56;99931.63;31102337;28;96766;-63
2022/10/02 10:33:16;;;;;;;6.03;1.10;;;;;;;29.78;26.87;99913.63;31102246;28;96681;-66
2022/10/02 10:48:55;;;;;;;5.13;1.63;;;;;;;31.66;25.44;99896.81;31100829;28;97274;-62
2022/10/02 11:04:12;;;;;;;5.00;1.37;;;;;;;29.81;27.13;99890.25;31099030;28;96731;-67
2022/10/02 11:19:32;;;;;;;8.33;1.70;;;;;;;27.78;28.97;99877.38;31097609;28;97252;-67
2022/10/02 11:34:55;;;;;;;3.23;1.00;;;;;;;23.19;35.37;99869.59;31113806;28;96698;-67
2022/10/02 11:50:01;;;;;;;4.03;1.30;;;;;;;22.63;35.10;99857.19;31115285;28;97317;-70
2022/10/02 12:05:41;;;;;;;5.20;1.30;;;;;;;21.18;39.23;99861.97;31117801;28;96779;-71
2022/10/02 12:36:33;;;;;;;9.23;1.80;;;;;;;16.04;48.60;99872.19;31108656;28;96629;-61
2022/10/02 12:51:53;;;;;;;7.07;1.23;;;;;;;14.44;55.81;99883.88;31113339;28;96798;-66
2022/10/02 13:07:25;;;;;;;3.13;0.90;;;;;;;15.29;56.98;99859.16;31113332;28;97633;-68
2022/10/02 13:22:44;;;;;;;2.20;0.83;;;;;;;16.31;57.76;99851.34;31110789;28;96668;-63
2022/10/02 13:38:24;;;;;;;2.57;0.90;;;;;;;19.04;55.51;99817.94;31107723;28;97292;-69
2022/10/02 13:53:45;;;;;;;2.83;1.10;;;;;;;28.20;39.27;99785.38;31105591;28;96688;-65
2022/10/02 14:08:56;;;;;;;2.70;1.10;;;;;;;31.25;31.53;99765.84;31105628;28;97435;-64
2022/10/02 14:24:05;;;;;;;3.00;1.00;;;;;;;29.78;29.91;99754.41;31104227;28;96799;-66
2022/10/02 14:39:11;;;;;;;5.07;1.20;;;;;;;24.36;36.45;99763.38;31102065;28;96759;-64
2022/10/02 14:54:42;;;;;;;5.73;1.50;;;;;;;20.79;41.57;99762.59;31102934;28;96659;-70
2022/10/02 15:10:02;;;;;;;3.17;1.30;;;;;;;17.67;48.48;99763.78;31099249;28;97410;-62
2022/10/02 15:25:14;;;;;;;6.87;2.13;;;;;;;16.46;53.52;99786.53;31098732;28;96819;-62
2022/10/02 15:40:32;;;;;;;2.67;1.60;;;;;;;15.34;56.67;99779.69;31097303;28;97406;-70
2022/10/02 15:55:41;;;;;;;3.33;1.83;;;;;;;14.27;59.02;99795.84;31098201;28;96701;-61
2022/10/02 16:10:54;;;;;;;10.30;2.97;;;;;;;13.49;61.64;99810.44;31097546;28;96851;-61
2022/10/02 16:26:26;;;;;;;8.83;3.00;;;;;;;13.00;64.36;99822.06;31115674;28;97432;-61
2022/10/02 16:41:27;;;;;;;7.40;2.47;;;;;;;12.80;66.11;99816.56;31109437;28;97065;-62
2022/10/02 16:56:39;;;;;;;5.82;2.90;;;;;;;12.50;66.58;99838.91;31112344;28;97440;-62
2022/10/02 17:12:02;;;;;;;6.00;3.10;;;;;;;11.89;67.92;99855.31;31110723;28;96736;-70
2022/10/02 17:27:18;;;;;;;5.60;2.97;;;;;;;11.39;69.44;99860.41;31108847;28;96569;-61
2022/10/02 17:42:33;;;;;;;8.53;3.23;;;;;;;11.04;70.46;99881.41;31107492;28;96681;-63
2022/10/02 17:57:43;;;;;;;6.57;3.00;;;;;;;10.82;71.91;99897.25;31108664;28;97605;-62
2022/10/02 18:12:50;;;;;;;4.00;2.27;;;;;;;11.02;72.75;99904.75;31105988;28;96658;-66
2022/10/02 18:28:16;;;;;;;5.67;2.57;;;;;;;11.03;72.44;99909.09;31103770;28;97569;-66
2022/10/02 18:43:38;;;;;;;7.33;3.13;;;;;;;10.90;73.13;99908.88;31101004;28;97500;-71
2022/10/02 18:58:51;;;;;;;10.90;4.50;;;;;;;10.75;73.87;99914.97;31101732;28;97348;-66
2022/10/02 19:13:51;;;;;;;5.87;2.70;;;;;;;10.75;74.26;99924.81;31098408;28;97239;-67
2022/10/02 19:29:18;;;;;;;6.07;3.00;;;;;;;10.76;74.15;99947.78;31097534;28;97440;-66
2022/10/02 19:44:40;;;;;;;6.87;3.47;;;;;;;10.63;75.32;99973.16;31092889;28;96901;-69
2022/10/02 19:59:51;;;;;;;6.93;3.33;;;;;;;10.35;74.72;99972.81;31117485;28;96700;-70
2022/10/02 20:14:59;;;;;;;6.20;3.07;;;;;;;10.28;74.83;99969.16;31116346;28;96683;-71
2022/10/02 20:30:05;;;;;;;6.87;2.67;;;;;;;10.28;75.76;99985.16;31115398;28;97382;-72
2022/10/02 20:45:11;;;;;;;9.93;3.10;;;;;;;10.39;75.21;99992.78;31114672;28;97164;-70
2022/10/02 21:00:18;;;;;;;6.87;2.53;;;;;;;10.04;75.95;100008.16;31112349;28;96597;-71
2022/10/02 21:15:18;;;;;;;5.57;2.70;;;;;;;9.81;76.26;100030.19;31112100;28;97516;-69
2022/10/02 21:30:19;;;;;;;8.45;2.83;;;;;;;9.66;76.83;100034.53;31111418;28;96819;-69
2022/10/02 21:46:10;;;;;;;7.07;2.93;;;;;;;9.46;77.11;100034.88;31110661;28;96638;-68
2022/10/02 22:01:32;;;;;;;8.77;3.60;;;;;;;9.65;78.29;100040.88;31104836;28;96813;-70
2022/10/02 22:17:17;;;;;;;7.40;3.00;;;;;;;9.77;78.46;100054.63;31107932;28;96587;-68
2022/10/02 22:33:09;;;;;;;5.20;2.47;;;;;;;9.93;78.38;100054.59;31048774;28;97580;-70
2022/10/02 22:48:39;;;;;;;11.27;2.60;;;;;;;10.09;78.52;100052.94;31104731;28;96745;-72
2022/10/02 23:03:50;;;;;;;6.10;2.53;;;;;;;10.20;78.25;100047.22;31102850;28;96660;-71
2022/10/02 23:19:01;;;;;;;5.10;2.43;;;;;;;10.33;78.44;100065.31;31102059;28;96689;-71
2022/10/02 23:34:35;;;;;;;3.97;1.83;;;;;;;10.34;78.31;100064.31;31123643;28;96722;-72
2022/10/02 23:49:41;;;;;;;5.27;2.00;;;;;;;10.09;78.17;100059.06;31121396;28;96918;-62
